sensor_id;sensor_type;location;lat;lon;timestamp;pressure;altitude;pressure_sealevel;temperature;humidity
62508;BME280;48556;51.972;4.624;2022-08-21T01:49:10;101752.06;;;21.60;56.94
62508;BME280;48556;51.972;4.624;2022-08-21T01:51:58;101759.31;;;21.58;57.04
62508;BME280;48556;51.972;4.624;2022-08-21T01:54:44;101758.81;;;21.48;57.47
62508;BME280;48556;51.972;4.624;2022-08-21T01:57:50;101751.72;;;21.47;57.26
62508;BME280;48556;51.972;4.624;2022-08-21T02:10:27;101734.59;;;21.51;56.66
62508;BME280;48556;51.972;4.624;2022-08-21T02:13:45;101733.81;;;21.49;56.78
62508;BME280;48556;51.972;4.624;2022-08-21T03:22:35;101698.19;;;20.39;59.99
62508;BME280;48556;51.972;4.624;2022-08-21T03:25:42;101698.03;;;20.20;60.21
62508;BME280;48556;51.972;4.624;2022-08-21T03:28:38;101697.44;;;20.36;60.02
62508;BME280;48556;51.972;4.624;2022-08-21T03:31:24;101696.09;;;20.47;59.60
62508;BME280;48556;51.972;4.624;2022-08-21T03:34:00;101693.47;;;20.46;59.48
62508;BME280;48556;51.972;4.624;2022-08-21T03:40:08;101693.28;;;20.51;59.24
62508;BME280;48556;51.972;4.624;2022-08-21T03:46:21;101698.97;;;20.41;59.67
62508;BME280;48556;51.972;4.624;2022-08-21T03:52:30;101686.56;;;19.94;61.08
62508;BME280;48556;51.972;4.624;2022-08-21T03:58:49;101692.44;;;19.79;61.83
62508;BME280;48556;51.972;4.624;2022-08-21T04:05:30;101685.81;;;19.66;62.52
62508;BME280;48556;51.972;4.624;2022-08-21T04:21:11;101699.38;;;19.09;65.53
62508;BME280;48556;51.972;4.624;2022-08-21T04:23:56;101696.72;;;19.07;65.72
62508;BME280;48556;51.972;4.624;2022-08-21T04:26:42;101699.44;;;19.58;64.30
62508;BME280;48556;51.972;4.624;2022-08-21T04:29:12;101696.81;;;19.56;64.02
62508;BME280;48556;51.972;4.624;2022-08-21T04:32:33;101697.38;;;19.66;63.91
62508;BME280;48556;51.972;4.624;2022-08-21T04:35:09;101698.91;;;19.23;65.28
62508;BME280;48556;51.972;4.624;2022-08-21T04:37:59;101696.81;;;19.31;65.22
62508;BME280;48556;51.972;4.624;2022-08-21T04:40:27;101716.69;;;18.95;66.46
62508;BME280;48556;51.972;4.624;2022-08-21T04:43:01;101715.53;;;19.29;65.29
62508;BME280;48556;51.972;4.624;2022-08-21T04:45:33;101724.56;;;19.25;65.91
62508;BME280;48556;51.972;4.624;2022-08-21T04:48:12;101721.88;;;19.52;64.94
62508;BME280;48556;51.972;4.624;2022-08-21T04:50:56;101721.75;;;19.55;65.12
62508;BME280;48556;51.972;4.624;2022-08-21T04:53:31;101728.59;;;19.37;65.30
62508;BME280;48556;51.972;4.624;2022-08-21T04:56:08;101722.84;;;19.50;65.28
62508;BME280;48556;51.972;4.624;2022-08-21T05:01:23;101733.00;;;19.11;66.57
62508;BME280;48556;51.972;4.624;2022-08-21T05:04:21;101729.91;;;18.99;67.45
62508;BME280;48556;51.972;4.624;2022-08-21T05:06:52;101732.28;;;18.78;68.05
62508;BME280;48556;51.972;4.624;2022-08-21T05:09:29;101726.03;;;19.07;67.53
62508;BME280;48556;51.972;4.624;2022-08-21T05:12:21;101728.66;;;18.81;68.30
62508;BME280;48556;51.972;4.624;2022-08-21T05:15:17;101731.47;;;19.04;67.98
62508;BME280;48556;51.972;4.624;2022-08-21T05:17:59;101730.63;;;19.04;67.55
62508;BME280;48556;51.972;4.624;2022-08-21T05:20:31;101724.91;;;18.59;69.53
62508;BME280;48556;51.972;4.624;2022-08-21T05:23:08;101728.19;;;18.68;69.44
62508;BME280;48556;51.972;4.624;2022-08-21T05:25:40;101726.81;;;18.54;69.73
62508;BME280;48556;51.972;4.624;2022-08-21T05:28:17;101725.31;;;18.74;69.20
62508;BME280;48556;51.972;4.624;2022-08-21T05:38:08;101725.94;;;18.82;69.70
62508;BME280;48556;51.972;4.624;2022-08-21T05:41:02;101729.31;;;18.89;69.61
62508;BME280;48556;51.972;4.624;2022-08-21T05:44:15;101730.81;;;18.98;68.83
62508;BME280;48556;51.972;4.624;2022-08-21T05:47:01;101728.25;;;19.21;68.26
62508;BME280;48556;51.972;4.624;2022-08-21T05:50:21;101738.97;;;18.93;69.51
62508;BME280;48556;51.972;4.624;2022-08-21T05:52:52;101738.06;;;18.94;69.73
62508;BME280;48556;51.972;4.624;2022-08-21T05:55:45;101744.72;;;19.34;68.02
62508;BME280;48556;51.972;4.624;2022-08-21T06:05:14;101727.41;;;19.46;68.33
62508;BME280;48556;51.972;4.624;2022-08-21T06:07:54;101741.03;;;19.37;68.09
62508;BME280;48556;51.972;4.624;2022-08-21T06:10:43;101728.97;;;19.52;67.94
62508;BME280;48556;51.972;4.624;2022-08-21T06:16:34;101737.09;;;19.74;67.42
62508;BME280;48556;51.972;4.624;2022-08-21T06:19:24;101732.69;;;19.73;67.23
62508;BME280;48556;51.972;4.624;2022-08-21T06:21:52;101733.78;;;19.92;66.84
62508;BME280;48556;51.972;4.624;2022-08-21T06:24:54;101730.25;;;19.92;67.25
62508;BME280;48556;51.972;4.624;2022-08-21T06:27:45;101735.81;;;19.86;67.15
62508;BME280;48556;51.972;4.624;2022-08-21T06:30:24;101733.16;;;20.09;66.83
62508;BME280;48556;51.972;4.624;2022-08-21T06:36:22;101745.56;;;20.10;66.75
62508;BME280;48556;51.972;4.624;2022-08-21T06:39:10;101725.16;;;19.86;67.40
62508;BME280;48556;51.972;4.624;2022-08-21T06:42:04;101729.66;;;19.84;68.17
62508;BME280;48556;51.972;4.624;2022-08-21T06:45:06;101723.03;;;19.69;68.52
62508;BME280;48556;51.972;4.624;2022-08-21T06:47:43;101721.59;;;19.85;68.37
62508;BME280;48556;51.972;4.624;2022-08-21T06:50:15;101720.38;;;20.18;66.94
62508;BME280;48556;51.972;4.624;2022-08-21T06:52:59;101727.84;;;20.31;66.69
62508;BME280;48556;51.972;4.624;2022-08-21T06:55:33;101717.03;;;19.89;67.96
62508;BME280;48556;51.972;4.624;2022-08-21T06:57:59;101721.47;;;20.12;67.68
62508;BME280;48556;51.972;4.624;2022-08-21T07:11:07;101729.09;;;20.23;67.39
62508;BME280;48556;51.972;4.624;2022-08-21T07:13:47;101725.59;;;20.66;66.73
62508;BME280;48556;51.972;4.624;2022-08-21T07:16:17;101727.69;;;20.82;65.91
62508;BME280;48556;51.972;4.624;2022-08-21T07:18:47;101733.03;;;20.82;65.96
62508;BME280;48556;51.972;4.624;2022-08-21T07:21:57;101731.16;;;21.06;65.27
62508;BME280;48556;51.972;4.624;2022-08-21T07:24:51;101734.88;;;21.02;65.18
62508;BME280;48556;51.972;4.624;2022-08-21T07:30:36;101747.53;;;21.19;65.02
62508;BME280;48556;51.972;4.624;2022-08-21T07:33:48;101743.06;;;21.20;64.81
62508;BME280;48556;51.972;4.624;2022-08-21T07:36:33;101737.13;;;21.13;64.76
62508;BME280;48556;51.972;4.624;2022-08-21T07:46:06;101733.13;;;21.44;64.61
62508;BME280;48556;51.972;4.624;2022-08-21T08:05:56;101738.22;;;21.71;63.42
62508;BME280;48556;51.972;4.624;2022-08-21T08:08:25;101729.41;;;21.68;63.53
62508;BME280;48556;51.972;4.624;2022-08-21T08:11:13;101732.38;;;22.02;62.59
62508;BME280;48556;51.972;4.624;2022-08-21T08:14:07;101738.97;;;21.74;62.79
62508;BME280;48556;51.972;4.624;2022-08-21T08:17:01;101725.13;;;22.23;61.52
62508;BME280;48556;51.972;4.624;2022-08-21T08:19:28;101720.06;;;22.17;61.60
62508;BME280;48556;51.972;4.624;2022-08-21T08:21:54;101732.13;;;22.07;61.67
62508;BME280;48556;51.972;4.624;2022-08-21T08:24:20;101735.84;;;22.23;61.41
62508;BME280;48556;51.972;4.624;2022-08-21T08:26:49;101723.13;;;22.84;59.88
62508;BME280;48556;51.972;4.624;2022-08-21T08:29:19;101724.69;;;22.70;59.56
62508;BME280;48556;51.972;4.624;2022-08-21T08:32:02;101725.19;;;22.96;58.93
62508;BME280;48556;51.972;4.624;2022-08-21T08:34:40;101721.25;;;23.03;58.61
62508;BME280;48556;51.972;4.624;2022-08-21T08:37:09;101710.97;;;23.13;57.90
62508;BME280;48556;51.972;4.624;2022-08-21T08:39:39;101712.94;;;23.45;57.12
62508;BME280;48556;51.972;4.624;2022-08-21T08:45:19;101714.69;;;23.46;56.39
62508;BME280;48556;51.972;4.624;2022-08-21T08:48:00;101714.91;;;23.41;55.77
62508;BME280;48556;51.972;4.624;2022-08-21T08:50:55;101708.81;;;23.55;55.43
62508;BME280;48556;51.972;4.624;2022-08-21T08:53:36;101708.22;;;23.50;55.73
62508;BME280;48556;51.972;4.624;2022-08-21T08:56:33;101714.09;;;23.57;55.80
62508;BME280;48556;51.972;4.624;2022-08-21T08:59:25;101713.41;;;23.53;55.20
62508;BME280;48556;51.972;4.624;2022-08-21T09:01:53;101703.25;;;23.76;54.03
62508;BME280;48556;51.972;4.624;2022-08-21T09:04:29;101708.53;;;23.77;53.14
62508;BME280;48556;51.972;4.624;2022-08-21T09:10:13;101712.84;;;23.97;52.00
62508;BME280;48556;51.972;4.624;2022-08-21T09:28:11;101704.66;;;24.80;49.48
62508;BME280;48556;51.972;4.624;2022-08-21T09:34:11;101713.16;;;25.19;48.00
62508;BME280;48556;51.972;4.624;2022-08-21T09:36:48;101714.09;;;24.87;48.42
62508;BME280;48556;51.972;4.624;2022-08-21T09:39:40;101721.28;;;25.33;47.97
62508;BME280;48556;51.972;4.624;2022-08-21T09:42:10;101716.22;;;25.57;46.65
62508;BME280;48556;51.972;4.624;2022-08-21T09:44:42;101722.03;;;25.35;46.79
62508;BME280;48556;51.972;4.624;2022-08-21T09:47:12;101704.69;;;25.25;44.98
62508;BME280;48556;51.972;4.624;2022-08-21T09:53:00;101705.28;;;25.30;45.66
62508;BME280;48556;51.972;4.624;2022-08-21T09:55:39;101698.91;;;25.62;45.28
62508;BME280;48556;51.972;4.624;2022-08-21T10:01:54;101701.13;;;25.55;44.73
62508;BME280;48556;51.972;4.624;2022-08-21T10:04:43;101698.06;;;25.90;46.08
62508;BME280;48556;51.972;4.624;2022-08-21T10:07:14;101698.13;;;25.88;45.56
62508;BME280;48556;51.972;4.624;2022-08-21T10:09:41;101702.50;;;25.76;43.53
62508;BME280;48556;51.972;4.624;2022-08-21T10:12:24;101704.75;;;25.39;44.70
62508;BME280;48556;51.972;4.624;2022-08-21T10:20:54;101700.84;;;26.17;43.42
62508;BME280;48556;51.972;4.624;2022-08-21T10:29:51;101702.31;;;27.05;43.64
62508;BME280;48556;51.972;4.624;2022-08-21T10:33:00;101694.53;;;27.00;43.63
62508;BME280;48556;51.972;4.624;2022-08-21T10:47:52;101682.47;;;27.06;39.76
62508;BME280;48556;51.972;4.624;2022-08-21T10:56:35;101691.44;;;26.79;39.60
62508;BME280;48556;51.972;4.624;2022-08-21T10:59:24;101684.34;;;26.78;39.90
62508;BME280;48556;51.972;4.624;2022-08-21T11:04:50;101690.56;;;27.32;38.74
62508;BME280;48556;51.972;4.624;2022-08-21T11:10:40;101689.13;;;28.29;36.46
62508;BME280;48556;51.972;4.624;2022-08-21T11:17:07;101705.63;;;29.10;34.64
62508;BME280;48556;51.972;4.624;2022-08-21T11:19:39;101693.41;;;28.93;35.09
62508;BME280;48556;51.972;4.624;2022-08-21T11:29:41;101699.81;;;29.03;34.67
62508;BME280;48556;51.972;4.624;2022-08-21T11:38:35;101706.69;;;27.85;36.44
62508;BME280;48556;51.972;4.624;2022-08-21T11:41:16;101700.31;;;27.86;37.00
62508;BME280;48556;51.972;4.624;2022-08-21T11:43:53;101703.97;;;27.97;36.70
62508;BME280;48556;51.972;4.624;2022-08-21T11:52:13;101713.56;;;28.14;36.07
62508;BME280;48556;51.972;4.624;2022-08-21T11:57:32;101711.59;;;27.14;36.97
62508;BME280;48556;51.972;4.624;2022-08-21T12:00:19;101701.38;;;27.19;36.27
62508;BME280;48556;51.972;4.624;2022-08-21T12:02:52;101708.53;;;26.92;36.78
62508;BME280;48556;51.972;4.624;2022-08-21T12:06:13;101708.91;;;26.73;37.32
62508;BME280;48556;51.972;4.624;2022-08-21T12:08:56;101696.69;;;27.08;35.16
62508;BME280;48556;51.972;4.624;2022-08-21T12:18:23;101711.41;;;26.76;36.17
62508;BME280;48556;51.972;4.624;2022-08-21T12:21:25;101718.75;;;26.60;35.67
62508;BME280;48556;51.972;4.624;2022-08-21T12:27:53;101715.19;;;27.27;35.35
62508;BME280;48556;51.972;4.624;2022-08-21T12:31:03;101714.19;;;27.15;35.19
62508;BME280;48556;51.972;4.624;2022-08-21T12:37:04;101725.84;;;27.82;33.45
62508;BME280;48556;51.972;4.624;2022-08-21T12:40:05;101720.34;;;28.70;32.11
62508;BME280;48556;51.972;4.624;2022-08-21T12:43:14;101727.88;;;29.02;30.97
62508;BME280;48556;51.972;4.624;2022-08-21T12:46:25;101715.47;;;29.69;30.21
62508;BME280;48556;51.972;4.624;2022-08-21T12:49:33;101720.91;;;29.80;29.85
62508;BME280;48556;51.972;4.624;2022-08-21T12:55:42;101718.38;;;32.26;25.51
62508;BME280;48556;51.972;4.624;2022-08-21T12:58:39;101729.81;;;31.89;25.93
62508;BME280;48556;51.972;4.624;2022-08-21T13:04:36;101724.34;;;31.58;27.00
62508;BME280;48556;51.972;4.624;2022-08-21T13:07:16;101722.44;;;32.00;26.31
62508;BME280;48556;51.972;4.624;2022-08-21T13:20:22;101721.03;;;32.96;26.88
62508;BME280;48556;51.972;4.624;2022-08-21T13:23:31;101725.84;;;32.33;27.37
62508;BME280;48556;51.972;4.624;2022-08-21T13:26:21;101723.00;;;31.73;28.99
62508;BME280;48556;51.972;4.624;2022-08-21T13:33:21;101721.50;;;33.68;27.02
62508;BME280;48556;51.972;4.624;2022-08-21T13:36:32;101722.41;;;35.24;24.68
62508;BME280;48556;51.972;4.624;2022-08-21T13:40:20;101722.47;;;33.19;26.14
62508;BME280;48556;51.972;4.624;2022-08-21T13:42:59;101718.75;;;33.01;26.43
62508;BME280;48556;51.972;4.624;2022-08-21T13:49:29;101718.31;;;33.25;26.28
62508;BME280;48556;51.972;4.624;2022-08-21T14:02:51;101720.31;;;30.77;29.64
62508;BME280;48556;51.972;4.624;2022-08-21T14:05:29;101718.22;;;29.92;29.99
62508;BME280;48556;51.972;4.624;2022-08-21T14:10:54;101730.66;;;28.52;33.18
62508;BME280;48556;51.972;4.624;2022-08-21T14:13:34;101734.47;;;27.74;34.38
62508;BME280;48556;51.972;4.624;2022-08-21T14:19:15;101729.38;;;26.90;35.46
62508;BME280;48556;51.972;4.624;2022-08-21T14:21:43;101731.38;;;26.03;37.25
62508;BME280;48556;51.972;4.624;2022-08-21T14:24:24;101728.47;;;26.21;36.29
62508;BME280;48556;51.972;4.624;2022-08-21T14:30:20;101734.19;;;26.43;36.27
62508;BME280;48556;51.972;4.624;2022-08-21T14:32:47;101733.09;;;26.33;36.53
62508;BME280;48556;51.972;4.624;2022-08-21T14:35:14;101730.84;;;27.22;35.54
62508;BME280;48556;51.972;4.624;2022-08-21T14:37:44;101732.94;;;26.91;34.83
62508;BME280;48556;51.972;4.624;2022-08-21T14:40:30;101727.44;;;27.58;33.71
62508;BME280;48556;51.972;4.624;2022-08-21T14:42:58;101729.47;;;28.19;32.73
62508;BME280;48556;51.972;4.624;2022-08-21T14:45:29;101733.84;;;28.46;31.98
62508;BME280;48556;51.972;4.624;2022-08-21T14:48:06;101728.84;;;28.16;32.61
62508;BME280;48556;51.972;4.624;2022-08-21T14:50:33;101730.56;;;28.17;32.04
62508;BME280;48556;51.972;4.624;2022-08-21T14:53:04;101735.69;;;28.94;31.22
62508;BME280;48556;51.972;4.624;2022-08-21T14:55:38;101732.16;;;28.93;31.52
62508;BME280;48556;51.972;4.624;2022-08-21T15:01:33;101720.66;;;30.29;29.89
62508;BME280;48556;51.972;4.624;2022-08-21T15:04:05;101723.47;;;30.50;30.86
62508;BME280;48556;51.972;4.624;2022-08-21T15:09:44;101730.56;;;30.19;33.18
62508;BME280;48556;51.972;4.624;2022-08-21T15:13:03;101732.25;;;29.74;33.59
62508;BME280;48556;51.972;4.624;2022-08-21T15:15:36;101732.69;;;29.45;34.50
62508;BME280;48556;51.972;4.624;2022-08-21T15:18:07;101730.28;;;30.44;32.95
62508;BME280;48556;51.972;4.624;2022-08-21T15:21:05;101733.97;;;30.43;32.86
62508;BME280;48556;51.972;4.624;2022-08-21T15:27:30;101736.28;;;30.59;32.48
62508;BME280;48556;51.972;4.624;2022-08-21T15:29:56;101739.63;;;30.95;31.53
62508;BME280;48556;51.972;4.624;2022-08-21T15:32:34;101735.22;;;32.10;29.77
62508;BME280;48556;51.972;4.624;2022-08-21T15:35:10;101735.25;;;33.29;28.58
62508;BME280;48556;51.972;4.624;2022-08-21T15:37:44;101725.31;;;34.68;26.23
62508;BME280;48556;51.972;4.624;2022-08-21T15:40:10;101726.22;;;35.13;25.25
62508;BME280;48556;51.972;4.624;2022-08-21T15:42:59;101728.13;;;35.13;24.94
62508;BME280;48556;51.972;4.624;2022-08-21T15:48:55;101734.28;;;31.99;29.16
62508;BME280;48556;51.972;4.624;2022-08-21T15:51:39;101737.41;;;31.22;30.88
62508;BME280;48556;51.972;4.624;2022-08-21T15:57:19;101734.16;;;31.49;30.01
62508;BME280;48556;51.972;4.624;2022-08-21T16:03:28;101735.19;;;31.79;30.29
62508;BME280;48556;51.972;4.624;2022-08-21T16:09:29;101732.69;;;32.18;29.85
62508;BME280;48556;51.972;4.624;2022-08-21T16:12:06;101731.91;;;31.54;30.67
62508;BME280;48556;51.972;4.624;2022-08-21T16:14:35;101735.31;;;30.93;31.48
62508;BME280;48556;51.972;4.624;2022-08-21T16:17:05;101741.06;;;30.67;31.90
62508;BME280;48556;51.972;4.624;2022-08-21T16:19:59;101735.50;;;30.80;31.89
62508;BME280;48556;51.972;4.624;2022-08-21T16:25:44;101743.00;;;30.10;30.63
62508;BME280;48556;51.972;4.624;2022-08-21T16:28:17;101743.25;;;29.37;33.64
62508;BME280;48556;51.972;4.624;2022-08-21T16:31:21;101740.94;;;29.08;34.38
62508;BME280;48556;51.972;4.624;2022-08-21T16:37:22;101745.97;;;29.02;35.45
62508;BME280;48556;51.972;4.624;2022-08-21T16:39:50;101739.56;;;28.78;35.55
62508;BME280;48556;51.972;4.624;2022-08-21T16:42:44;101732.03;;;28.58;35.71
62508;BME280;48556;51.972;4.624;2022-08-21T16:49:23;101736.19;;;27.36;37.39
62508;BME280;48556;51.972;4.624;2022-08-21T16:51:48;101727.16;;;27.63;37.47
62508;BME280;48556;51.972;4.624;2022-08-21T16:54:19;101738.19;;;27.20;38.68
62508;BME280;48556;51.972;4.624;2022-08-21T16:56:50;101731.28;;;27.28;38.35
62508;BME280;48556;51.972;4.624;2022-08-21T16:59:34;101729.06;;;27.61;36.42
62508;BME280;48556;51.972;4.624;2022-08-21T17:02:01;101728.09;;;27.88;37.21
62508;BME280;48556;51.972;4.624;2022-08-21T17:04:27;101724.84;;;27.57;36.84
62508;BME280;48556;51.972;4.624;2022-08-21T17:06:55;101728.25;;;27.33;36.19
62508;BME280;48556;51.972;4.624;2022-08-21T17:09:24;101729.75;;;26.84;36.99
62508;BME280;48556;51.972;4.624;2022-08-21T17:11:59;101734.25;;;27.51;35.78
62508;BME280;48556;51.972;4.624;2022-08-21T17:14:53;101728.91;;;27.24;35.99
62508;BME280;48556;51.972;4.624;2022-08-21T17:17:22;101732.78;;;27.20;36.53
62508;BME280;48556;51.972;4.624;2022-08-21T17:19:48;101726.41;;;27.21;36.93
62508;BME280;48556;51.972;4.624;2022-08-21T17:22:23;101725.47;;;26.94;37.40
62508;BME280;48556;51.972;4.624;2022-08-21T17:24:48;101722.22;;;27.29;36.49
62508;BME280;48556;51.972;4.624;2022-08-21T17:27:15;101726.28;;;27.22;36.98
62508;BME280;48556;51.972;4.624;2022-08-21T17:29:41;101728.56;;;26.75;37.72
62508;BME280;48556;51.972;4.624;2022-08-21T17:32:10;101731.03;;;26.78;37.85
62508;BME280;48556;51.972;4.624;2022-08-21T17:35:02;101724.25;;;26.58;38.31
62508;BME280;48556;51.972;4.624;2022-08-21T17:37:28;101734.59;;;25.94;39.60
62508;BME280;48556;51.972;4.624;2022-08-21T17:40:25;101732.25;;;26.46;38.74
62508;BME280;48556;51.972;4.624;2022-08-21T17:42:52;101732.19;;;26.33;38.68
62508;BME280;48556;51.972;4.624;2022-08-21T17:45:20;101729.63;;;26.73;38.19
62508;BME280;48556;51.972;4.624;2022-08-21T17:47:46;101734.78;;;26.34;39.07
62508;BME280;48556;51.972;4.624;2022-08-21T17:50:20;101733.38;;;26.14;39.83
62508;BME280;48556;51.972;4.624;2022-08-21T17:53:15;101725.59;;;26.09;39.94
62508;BME280;48556;51.972;4.624;2022-08-21T17:55:51;101721.94;;;26.10;40.55
62508;BME280;48556;51.972;4.624;2022-08-21T17:58:20;101723.63;;;26.40;39.94
62508;BME280;48556;51.972;4.624;2022-08-21T18:01:02;101713.38;;;26.60;39.70
62508;BME280;48556;51.972;4.624;2022-08-21T18:03:31;101722.00;;;26.65;39.81
62508;BME280;48556;51.972;4.624;2022-08-21T18:05:59;101725.16;;;26.86;39.24
62508;BME280;48556;51.972;4.624;2022-08-21T18:08:24;101721.72;;;25.99;41.84
62508;BME280;48556;51.972;4.624;2022-08-21T18:10:51;101727.41;;;26.23;42.32
62508;BME280;48556;51.972;4.624;2022-08-21T18:13:24;101728.09;;;26.13;42.55
62508;BME280;48556;51.972;4.624;2022-08-21T18:15:52;101722.81;;;26.11;42.66
62508;BME280;48556;51.972;4.624;2022-08-21T18:18:20;101727.00;;;26.30;42.39
62508;BME280;48556;51.972;4.624;2022-08-21T18:20:56;101727.13;;;26.28;42.73
62508;BME280;48556;51.972;4.624;2022-08-21T18:23:33;101721.72;;;26.28;42.71
62508;BME280;48556;51.972;4.624;2022-08-21T18:29:40;101730.19;;;25.64;44.57
62508;BME280;48556;51.972;4.624;2022-08-21T18:32:07;101726.16;;;26.29;43.13
62508;BME280;48556;51.972;4.624;2022-08-21T18:37:37;101725.75;;;25.63;44.59
62508;BME280;48556;51.972;4.624;2022-08-21T18:40:06;101725.94;;;25.60;44.87
62508;BME280;48556;51.972;4.624;2022-08-21T18:42:53;101728.53;;;25.31;45.48
62508;BME280;48556;51.972;4.624;2022-08-21T18:45:51;101727.09;;;25.99;43.57
62508;BME280;48556;51.972;4.624;2022-08-21T18:48:35;101725.78;;;26.06;43.11
62508;BME280;48556;51.972;4.624;2022-08-21T18:51:19;101731.16;;;26.06;42.98
62508;BME280;48556;51.972;4.624;2022-08-21T19:11:00;101733.25;;;25.72;43.32
62508;BME280;48556;51.972;4.624;2022-08-21T19:13:28;101741.72;;;25.81;43.51
62508;BME280;48556;51.972;4.624;2022-08-21T19:16:06;101744.97;;;25.57;43.72
62508;BME280;48556;51.972;4.624;2022-08-21T19:21:45;101749.03;;;25.79;43.66
62508;BME280;48556;51.972;4.624;2022-08-21T19:24:43;101739.69;;;25.70;44.06
62508;BME280;48556;51.972;4.624;2022-08-21T19:27:43;101745.19;;;25.68;43.83
62508;BME280;48556;51.972;4.624;2022-08-21T19:30:09;101752.75;;;25.62;44.01
62508;BME280;48556;51.972;4.624;2022-08-21T19:32:37;101749.81;;;25.66;43.80
62508;BME280;48556;51.972;4.624;2022-08-21T19:35:05;101746.44;;;25.77;43.57
62508;BME280;48556;51.972;4.624;2022-08-21T19:37:31;101747.41;;;25.90;43.82
62508;BME280;48556;51.972;4.624;2022-08-21T19:39:56;101755.19;;;25.66;44.85
62508;BME280;48556;51.972;4.624;2022-08-21T19:42:26;101754.63;;;25.75;44.16
62508;BME280;48556;51.972;4.624;2022-08-21T19:45:09;101756.91;;;25.53;44.56
62508;BME280;48556;51.972;4.624;2022-08-21T19:47:41;101751.53;;;25.67;44.34
62508;BME280;48556;51.972;4.624;2022-08-21T19:50:39;101750.97;;;25.76;44.23
62508;BME280;48556;51.972;4.624;2022-08-21T19:53:05;101750.41;;;25.86;43.80
62508;BME280;48556;51.972;4.624;2022-08-21T19:56:25;101757.28;;;25.61;44.24
62508;BME280;48556;51.972;4.624;2022-08-21T19:59:02;101754.97;;;25.55;44.80
62508;BME280;48556;51.972;4.624;2022-08-21T20:01:44;101751.41;;;25.54;44.83
62508;BME280;48556;51.972;4.624;2022-08-21T20:04:22;101757.19;;;25.63;44.95
62508;BME280;48556;51.972;4.624;2022-08-21T20:06:52;101746.94;;;25.84;44.86
62508;BME280;48556;51.972;4.624;2022-08-21T20:09:18;101750.34;;;26.02;44.25
62508;BME280;48556;51.972;4.624;2022-08-21T20:11:49;101755.00;;;25.84;44.28
62508;BME280;48556;51.972;4.624;2022-08-21T20:14:27;101748.06;;;25.65;44.53
62508;BME280;48556;51.972;4.624;2022-08-21T20:17:09;101764.97;;;25.67;44.42
62508;BME280;48556;51.972;4.624;2022-08-21T20:22:34;101760.84;;;25.31;45.73
62508;BME280;48556;51.972;4.624;2022-08-21T20:25:08;101760.09;;;25.59;45.16
62508;BME280;48556;51.972;4.624;2022-08-21T20:27:45;101756.06;;;25.67;45.19
62508;BME280;48556;51.972;4.624;2022-08-21T20:30:12;101764.31;;;25.64;45.57
62508;BME280;48556;51.972;4.624;2022-08-21T20:32:38;101753.03;;;25.42;45.75
62508;BME280;48556;51.972;4.624;2022-08-21T20:35:08;101762.28;;;25.67;45.29
62508;BME280;48556;51.972;4.624;2022-08-21T20:37:34;101753.25;;;25.68;45.05
62508;BME280;48556;51.972;4.624;2022-08-21T20:40:05;101761.31;;;25.54;45.41
62508;BME280;48556;51.972;4.624;2022-08-21T20:42:36;101757.00;;;25.66;45.59
62508;BME280;48556;51.972;4.624;2022-08-21T20:45:03;101759.59;;;25.53;45.67
62508;BME280;48556;51.972;4.624;2022-08-21T20:47:30;101763.81;;;25.57;45.68
62508;BME280;48556;51.972;4.624;2022-08-21T20:50:07;101769.22;;;25.57;45.31
62508;BME280;48556;51.972;4.624;2022-08-21T20:52:43;101770.28;;;25.69;45.29
62508;BME280;48556;51.972;4.624;2022-08-21T20:55:15;101768.06;;;25.47;46.02
62508;BME280;48556;51.972;4.624;2022-08-21T20:58:10;101763.97;;;25.39;45.89
62508;BME280;48556;51.972;4.624;2022-08-21T21:10:55;101769.53;;;25.36;46.18
62508;BME280;48556;51.972;4.624;2022-08-21T21:13:41;101774.84;;;25.22;46.30
62508;BME280;48556;51.972;4.624;2022-08-21T21:22:24;101770.19;;;25.10;46.93
62508;BME280;48556;51.972;4.624;2022-08-21T21:25:05;101767.81;;;25.35;46.25
62508;BME280;48556;51.972;4.624;2022-08-21T21:27:54;101760.50;;;25.21;46.77
62508;BME280;48556;51.972;4.624;2022-08-21T21:30:41;101768.41;;;25.40;46.68
62508;BME280;48556;51.972;4.624;2022-08-21T21:33:07;101765.47;;;25.29;46.86
62508;BME280;48556;51.972;4.624;2022-08-21T21:35:44;101771.38;;;24.89;47.30
62508;BME280;48556;51.972;4.624;2022-08-21T21:38:33;101768.25;;;24.81;47.43
62508;BME280;48556;51.972;4.624;2022-08-21T21:41:11;101768.13;;;24.51;48.35
62508;BME280;48556;51.972;4.624;2022-08-21T21:47:03;101776.03;;;24.86;47.64
62508;BME280;48556;51.972;4.624;2022-08-21T21:52:38;101760.28;;;24.80;48.23
62508;BME280;48556;51.972;4.624;2022-08-21T21:58:24;101764.84;;;25.24;47.80
62508;BME280;48556;51.972;4.624;2022-08-21T22:04:22;101758.50;;;24.95;47.66
62508;BME280;48556;51.972;4.624;2022-08-21T22:10:25;101760.16;;;24.97;47.10
62508;BME280;48556;51.972;4.624;2022-08-21T22:13:12;101760.09;;;24.83;47.56
62508;BME280;48556;51.972;4.624;2022-08-21T22:15:45;101760.59;;;24.57;47.80
62508;BME280;48556;51.972;4.624;2022-08-21T22:18:17;101757.97;;;24.88;47.48
62508;BME280;48556;51.972;4.624;2022-08-21T22:21:00;101758.34;;;24.82;47.71
62508;BME280;48556;51.972;4.624;2022-08-21T22:23:32;101757.44;;;25.13;46.64
62508;BME280;48556;51.972;4.624;2022-08-21T22:26:07;101754.69;;;24.51;48.14
62508;BME280;48556;51.972;4.624;2022-08-21T22:28:39;101757.13;;;24.55;48.36
62508;BME280;48556;51.972;4.624;2022-08-21T22:31:14;101758.78;;;24.74;48.05
62508;BME280;48556;51.972;4.624;2022-08-21T22:33:40;101754.56;;;24.70;47.76
62508;BME280;48556;51.972;4.624;2022-08-21T22:36:38;101761.28;;;24.93;47.57
62508;BME280;48556;51.972;4.624;2022-08-21T22:39:43;101765.81;;;24.77;47.69
62508;BME280;48556;51.972;4.624;2022-08-21T22:42:22;101764.06;;;24.60;48.00